Pagina principale
METAR-TAF:

METAR-TAF

Aeroporti :

Capo Mele

Andora, Italia

latitudine: 43-57N, longitudine: 008-10E, altezza: 220 m

Osservazione

Il bollettino è stato emesso 6 ore e 4 minuti fa, alle 17:55 UTC
Vento 16 kt da ovest/sud-ovest con raffiche fino a 29 kt
Temperature 15°C
Umidità 82%
Pressione 1007 hPa
Visibilità 10 km o più
Nubi sparse ad un'altezza di 2000 ft

METAR: LIMU 151755Z 25016G29KT 9999 SCT020 15/12 Q1007 RMK SCT QUK 3 QUL 1 S VIS MAR 25 KM VIS MIN 9999

Ora: 01:59 (23:59 UTC)


TAF: mancante

Osservazioni e previsioni meteorologiche di più di 4000 aeroporti (messaggi METAR e TAF).

Le stazioni disponibili sono rappresentate dai dischi gialli e rossi sulla carta.

Puntare il mouse per vedere il nome della stazione.

Clicca sopra per visualizzare le osservazioni e previsioni meteorologiche.

Per cambiare la mappa : fare clic sui pulsanti verdi con una croce nera per ingrandire, il pulsante verde con un trattino per diminuire, o sulla freccia verde per le mappe adiacenti.


METAR-TAF: